sensor_id;sensor_type;location;lat;lon;timestamp;pressure;altitude;pressure_sealevel;temperature;humidity
64095;BME280;50353;51.420;5.682;2023-04-01T00:00:54;98893.88;;;11.46;94.99
64095;BME280;50353;51.420;5.682;2023-04-01T00:03:21;98900.13;;;11.18;95.82
64095;BME280;50353;51.420;5.682;2023-04-01T00:05:47;98897.44;;;11.27;95.42
64095;BME280;50353;51.420;5.682;2023-04-01T00:08:12;98900.94;;;11.28;96.83
64095;BME280;50353;51.420;5.682;2023-04-01T00:10:38;98893.63;;;11.12;96.85
64095;BME280;50353;51.420;5.682;2023-04-01T00:13:03;98897.94;;;11.13;97.59
64095;BME280;50353;51.420;5.682;2023-04-01T00:15:28;98912.31;;;10.91;99.10
64095;BME280;50353;51.420;5.682;2023-04-01T00:17:54;98896.72;;;10.88;98.51
64095;BME280;50353;51.420;5.682;2023-04-01T00:20:20;98893.47;;;11.13;96.90
64095;BME280;50353;51.420;5.682;2023-04-01T00:22:46;98897.78;;;11.14;96.10
64095;BME280;50353;51.420;5.682;2023-04-01T00:25:11;98909.22;;;11.05;96.91
64095;BME280;50353;51.420;5.682;2023-04-01T00:27:37;98893.41;;;11.33;95.54
64095;BME280;50353;51.420;5.682;2023-04-01T00:30:03;98905.81;;;11.23;95.59
64095;BME280;50353;51.420;5.682;2023-04-01T00:32:28;98906.84;;;11.12;95.50
64095;BME280;50353;51.420;5.682;2023-04-01T00:34:54;98905.41;;;11.18;96.72
64095;BME280;50353;51.420;5.682;2023-04-01T00:37:20;98911.06;;;10.95;96.48
64095;BME280;50353;51.420;5.682;2023-04-01T00:39:46;98888.00;;;11.25;94.91
64095;BME280;50353;51.420;5.682;2023-04-01T00:42:11;98905.81;;;11.23;94.70
64095;BME280;50353;51.420;5.682;2023-04-01T00:44:38;98908.91;;;11.18;94.11
64095;BME280;50353;51.420;5.682;2023-04-01T00:47:04;98912.81;;;11.14;94.33
64095;BME280;50353;51.420;5.682;2023-04-01T00:49:33;98910.06;;;11.06;96.16
64095;BME280;50353;51.420;5.682;2023-04-01T00:52:02;98911.41;;;11.20;94.28
64095;BME280;50353;51.420;5.682;2023-04-01T00:54:29;98911.41;;;11.20;94.07
64095;BME280;50353;51.420;5.682;2023-04-01T00:57:02;98912.94;;;11.12;94.54
64095;BME280;50353;51.420;5.682;2023-04-01T00:59:35;98922.56;;;11.13;95.40
64095;BME280;50353;51.420;5.682;2023-04-01T01:02:04;98918.91;;;11.24;94.29
64095;BME280;50353;51.420;5.682;2023-04-01T01:04:33;98931.81;;;11.37;94.17
64095;BME280;50353;51.420;5.682;2023-04-01T01:09:44;98932.72;;;11.18;95.38
64095;BME280;50353;51.420;5.682;2023-04-01T01:12:22;98931.78;;;10.90;96.47
64095;BME280;50353;51.420;5.682;2023-04-01T01:18:18;98939.66;;;11.19;95.98
64095;BME280;50353;51.420;5.682;2023-04-01T01:26:53;98944.69;;;11.03;95.85
64095;BME280;50353;51.420;5.682;2023-04-01T01:34:39;98943.56;;;11.15;96.26
64095;BME280;50353;51.420;5.682;2023-04-01T01:37:09;98940.78;;;11.07;97.04
64095;BME280;50353;51.420;5.682;2023-04-01T01:39:36;98947.09;;;11.06;95.50
64095;BME280;50353;51.420;5.682;2023-04-01T01:42:05;98947.59;;;11.19;95.46
64095;BME280;50353;51.420;5.682;2023-04-01T01:44:32;98944.75;;;10.83;96.33
64095;BME280;50353;51.420;5.682;2023-04-01T01:46:59;98948.84;;;11.15;95.96
64095;BME280;50353;51.420;5.682;2023-04-01T01:49:25;98946.72;;;11.28;95.46
64095;BME280;50353;51.420;5.682;2023-04-01T01:51:52;98945.94;;;11.08;94.77
64095;BME280;50353;51.420;5.682;2023-04-01T01:54:18;98954.63;;;10.91;96.06
64095;BME280;50353;51.420;5.682;2023-04-01T01:56:46;98949.59;;;11.07;96.38
64095;BME280;50353;51.420;5.682;2023-04-01T01:59:14;98961.28;;;11.05;96.60
64095;BME280;50353;51.420;5.682;2023-04-01T02:01:42;98963.78;;;11.06;96.41
64095;BME280;50353;51.420;5.682;2023-04-01T02:04:10;98955.69;;;11.08;96.37
64095;BME280;50353;51.420;5.682;2023-04-01T02:06:40;98948.75;;;10.97;96.69
64095;BME280;50353;51.420;5.682;2023-04-01T02:09:08;98945.84;;;10.90;97.28
64095;BME280;50353;51.420;5.682;2023-04-01T02:11:43;98954.44;;;11.02;98.01
64095;BME280;50353;51.420;5.682;2023-04-01T02:14:21;98963.06;;;11.04;97.43
64095;BME280;50353;51.420;5.682;2023-04-01T02:16:55;98969.59;;;11.20;95.06
64095;BME280;50353;51.420;5.682;2023-04-01T02:19:26;98966.81;;;11.11;95.32
64095;BME280;50353;51.420;5.682;2023-04-01T02:21:56;98964.31;;;11.20;96.15
64095;BME280;50353;51.420;5.682;2023-04-01T02:24:24;98966.09;;;11.29;95.63
64095;BME280;50353;51.420;5.682;2023-04-01T02:26:51;98974.72;;;11.21;96.33
64095;BME280;50353;51.420;5.682;2023-04-01T02:29:19;98968.47;;;11.22;96.40
64095;BME280;50353;51.420;5.682;2023-04-01T02:31:46;98974.28;;;11.26;95.77
64095;BME280;50353;51.420;5.682;2023-04-01T02:34:12;98977.66;;;11.08;96.00
64095;BME280;50353;51.420;5.682;2023-04-01T02:36:38;98974.03;;;11.19;95.70
64095;BME280;50353;51.420;5.682;2023-04-01T02:39:05;98973.75;;;11.22;95.02
64095;BME280;50353;51.420;5.682;2023-04-01T02:41:30;98979.81;;;11.42;94.61
64095;BME280;50353;51.420;5.682;2023-04-01T02:43:56;98981.13;;;11.19;95.17
64095;BME280;50353;51.420;5.682;2023-04-01T02:46:23;98983.81;;;11.09;96.71
64095;BME280;50353;51.420;5.682;2023-04-01T02:48:49;98986.13;;;11.22;96.18
64095;BME280;50353;51.420;5.682;2023-04-01T02:51:14;98985.19;;;11.13;96.43
64095;BME280;50353;51.420;5.682;2023-04-01T02:53:40;98985.34;;;11.11;96.61
64095;BME280;50353;51.420;5.682;2023-04-01T02:56:05;98982.22;;;11.26;94.30
64095;BME280;50353;51.420;5.682;2023-04-01T02:58:30;98986.84;;;11.04;96.36
64095;BME280;50353;51.420;5.682;2023-04-01T03:00:56;98992.16;;;11.04;97.27
64095;BME280;50353;51.420;5.682;2023-04-01T03:03:21;98990.22;;;11.06;96.47
64095;BME280;50353;51.420;5.682;2023-04-01T03:05:46;98995.34;;;11.18;95.84
64095;BME280;50353;51.420;5.682;2023-04-01T03:08:12;98998.53;;;11.21;95.79
64095;BME280;50353;51.420;5.682;2023-04-01T03:10:37;99002.97;;;11.30;93.83
64095;BME280;50353;51.420;5.682;2023-04-01T03:13:02;99002.31;;;11.09;95.43
64095;BME280;50353;51.420;5.682;2023-04-01T03:15:28;99000.22;;;11.12;96.67
64095;BME280;50353;51.420;5.682;2023-04-01T03:17:53;99006.50;;;10.92;95.82
64095;BME280;50353;51.420;5.682;2023-04-01T03:20:19;99006.75;;;11.28;94.18
64095;BME280;50353;51.420;5.682;2023-04-01T03:22:44;99005.50;;;11.12;95.40
64095;BME280;50353;51.420;5.682;2023-04-01T03:25:11;99006.91;;;11.07;94.59
64095;BME280;50353;51.420;5.682;2023-04-01T03:27:36;99008.03;;;10.75;97.27
64095;BME280;50353;51.420;5.682;2023-04-01T03:30:03;99013.31;;;10.94;96.62
64095;BME280;50353;51.420;5.682;2023-04-01T03:32:29;99008.03;;;10.75;98.22
64095;BME280;50353;51.420;5.682;2023-04-01T03:34:54;99009.00;;;10.93;98.09
64095;BME280;50353;51.420;5.682;2023-04-01T03:37:19;99008.88;;;11.05;95.52
64095;BME280;50353;51.420;5.682;2023-04-01T03:39:45;99015.25;;;11.12;95.86
64095;BME280;50353;51.420;5.682;2023-04-01T03:42:11;99017.19;;;11.00;94.96
64095;BME280;50353;51.420;5.682;2023-04-01T03:44:37;99018.31;;;11.07;93.45
64095;BME280;50353;51.420;5.682;2023-04-01T03:47:02;99017.19;;;11.00;94.90
64095;BME280;50353;51.420;5.682;2023-04-01T03:49:27;99019.31;;;10.87;95.96
64095;BME280;50353;51.420;5.682;2023-04-01T03:51:53;99028.63;;;11.01;95.42
64095;BME280;50353;51.420;5.682;2023-04-01T03:54:18;99023.63;;;11.07;95.78
64095;BME280;50353;51.420;5.682;2023-04-01T03:56:45;99024.47;;;10.88;96.90
64095;BME280;50353;51.420;5.682;2023-04-01T03:59:11;99021.25;;;10.94;96.75
64095;BME280;50353;51.420;5.682;2023-04-01T04:01:36;99027.06;;;11.18;95.65
64095;BME280;50353;51.420;5.682;2023-04-01T04:04:02;99025.84;;;11.02;94.54
64095;BME280;50353;51.420;5.682;2023-04-01T04:06:28;99017.78;;;10.94;96.23
64095;BME280;50353;51.420;5.682;2023-04-01T04:08:53;99032.09;;;11.11;96.56
64095;BME280;50353;51.420;5.682;2023-04-01T04:11:19;99028.88;;;10.97;95.62
64095;BME280;50353;51.420;5.682;2023-04-01T04:13:45;99033.47;;;11.05;94.85
64095;BME280;50353;51.420;5.682;2023-04-01T04:16:10;99033.47;;;11.05;96.39
64095;BME280;50353;51.420;5.682;2023-04-01T04:18:36;99029.16;;;11.04;94.19
64095;BME280;50353;51.420;5.682;2023-04-01T04:21:02;99034.75;;;11.01;94.47
64095;BME280;50353;51.420;5.682;2023-04-01T04:23:28;99039.75;;;11.04;95.42
64095;BME280;50353;51.420;5.682;2023-04-01T04:28:25;99039.31;;;10.89;95.38
64095;BME280;50353;51.420;5.682;2023-04-01T04:30:51;99037.09;;;11.04;95.03
64095;BME280;50353;51.420;5.682;2023-04-01T04:33:16;99039.31;;;10.79;95.27
64095;BME280;50353;51.420;5.682;2023-04-01T04:35:42;99043.34;;;10.83;95.22
64095;BME280;50353;51.420;5.682;2023-04-01T04:38:07;99048.34;;;10.67;96.56
64095;BME280;50353;51.420;5.682;2023-04-01T04:40:32;99049.66;;;10.82;96.47
64095;BME280;50353;51.420;5.682;2023-04-01T04:42:58;99048.50;;;10.75;96.30
64095;BME280;50353;51.420;5.682;2023-04-01T04:45:23;99054.34;;;10.79;96.21
64095;BME280;50353;51.420;5.682;2023-04-01T04:47:48;99055.63;;;10.85;95.63
64095;BME280;50353;51.420;5.682;2023-04-01T04:50:13;99063.53;;;10.94;93.90
64095;BME280;50353;51.420;5.682;2023-04-01T04:52:39;99066.44;;;10.62;95.74
64095;BME280;50353;51.420;5.682;2023-04-01T04:55:05;99061.88;;;10.83;94.93
64095;BME280;50353;51.420;5.682;2023-04-01T04:57:30;99067.28;;;10.92;95.40
64095;BME280;50353;51.420;5.682;2023-04-01T04:59:55;99072.19;;;11.06;94.51
64095;BME280;50353;51.420;5.682;2023-04-01T05:02:21;99069.25;;;11.09;92.96
64095;BME280;50353;51.420;5.682;2023-04-01T05:04:46;99072.56;;;10.92;93.84
64095;BME280;50353;51.420;5.682;2023-04-01T05:07:11;99074.53;;;10.90;93.61
64095;BME280;50353;51.420;5.682;2023-04-01T05:09:37;99077.47;;;10.96;94.34
64095;BME280;50353;51.420;5.682;2023-04-01T05:12:02;99078.97;;;10.89;94.91
64095;BME280;50353;51.420;5.682;2023-04-01T05:14:27;99085.41;;;10.96;94.40
64095;BME280;50353;51.420;5.682;2023-04-01T05:16:53;99084.81;;;10.93;93.26
64095;BME280;50353;51.420;5.682;2023-04-01T05:19:19;99090.25;;;10.81;94.11
64095;BME280;50353;51.420;5.682;2023-04-01T05:21:45;99093.09;;;10.49;96.75
64095;BME280;50353;51.420;5.682;2023-04-01T05:24:10;99090.53;;;10.88;94.24
64095;BME280;50353;51.420;5.682;2023-04-01T05:26:35;99098.41;;;10.59;96.05
64095;BME280;50353;51.420;5.682;2023-04-01T05:29:02;99098.03;;;10.83;95.45
64095;BME280;50353;51.420;5.682;2023-04-01T05:31:27;99107.06;;;10.80;94.48
64095;BME280;50353;51.420;5.682;2023-04-01T05:33:53;99108.06;;;10.89;94.46
64095;BME280;50353;51.420;5.682;2023-04-01T05:36:19;99105.69;;;10.76;95.76
64095;BME280;50353;51.420;5.682;2023-04-01T05:38:45;99109.28;;;10.75;95.60
64095;BME280;50353;51.420;5.682;2023-04-01T05:41:11;99111.25;;;10.73;95.76
64095;BME280;50353;51.420;5.682;2023-04-01T05:43:38;99110.16;;;10.95;93.08
64095;BME280;50353;51.420;5.682;2023-04-01T05:46:03;99116.41;;;10.85;93.61
64095;BME280;50353;51.420;5.682;2023-04-01T05:48:29;99120.25;;;10.61;94.22
64095;BME280;50353;51.420;5.682;2023-04-01T05:50:54;99122.94;;;10.90;93.81
64095;BME280;50353;51.420;5.682;2023-04-01T05:53:20;99123.38;;;10.86;93.46
64095;BME280;50353;51.420;5.682;2023-04-01T05:55:45;99133.22;;;10.83;93.70
64095;BME280;50353;51.420;5.682;2023-04-01T05:58:10;99139.59;;;10.71;94.10
64095;BME280;50353;51.420;5.682;2023-04-01T06:00:36;99140.88;;;10.77;94.32
64095;BME280;50353;51.420;5.682;2023-04-01T06:03:01;99144.41;;;10.46;95.79
64095;BME280;50353;51.420;5.682;2023-04-01T06:05:29;99138.31;;;10.56;96.38
64095;BME280;50353;51.420;5.682;2023-04-01T06:08:08;99150.88;;;10.73;96.25
64095;BME280;50353;51.420;5.682;2023-04-01T06:21:48;99175.53;;;10.83;96.02
64095;BME280;50353;51.420;5.682;2023-04-01T06:24:40;99174.28;;;10.88;95.19
64095;BME280;50353;51.420;5.682;2023-04-01T06:35:27;99193.19;;;10.73;93.89
64095;BME280;50353;51.420;5.682;2023-04-01T06:43:43;99195.19;;;10.91;94.56
64095;BME280;50353;51.420;5.682;2023-04-01T06:46:19;99200.22;;;10.63;96.88
64095;BME280;50353;51.420;5.682;2023-04-01T06:49:19;99204.75;;;10.51;99.15
64095;BME280;50353;51.420;5.682;2023-04-01T06:51:58;99197.75;;;10.71;97.09
64095;BME280;50353;51.420;5.682;2023-04-01T06:54:30;99199.22;;;10.95;94.07
64095;BME280;50353;51.420;5.682;2023-04-01T06:57:03;99208.84;;;10.55;98.03
64095;BME280;50353;51.420;5.682;2023-04-01T06:59:34;99210.81;;;10.73;95.58
64095;BME280;50353;51.420;5.682;2023-04-01T07:04:44;99223.06;;;10.74;96.49
64095;BME280;50353;51.420;5.682;2023-04-01T07:07:33;99228.81;;;10.89;96.41
64095;BME280;50353;51.420;5.682;2023-04-01T07:10:04;99226.13;;;10.69;95.59
64095;BME280;50353;51.420;5.682;2023-04-01T07:14:56;99229.31;;;10.21;100.00
64095;BME280;50353;51.420;5.682;2023-04-01T07:17:28;99232.16;;;10.50;98.80
64095;BME280;50353;51.420;5.682;2023-04-01T07:20:16;99236.28;;;10.43;100.00
64095;BME280;50353;51.420;5.682;2023-04-01T07:22:48;99244.97;;;10.12;100.00
64095;BME280;50353;51.420;5.682;2023-04-01T07:25:17;99248.69;;;10.73;98.87
64095;BME280;50353;51.420;5.682;2023-04-01T07:27:44;99249.75;;;10.61;100.00
64095;BME280;50353;51.420;5.682;2023-04-01T07:30:21;99258.41;;;10.30;100.00
64095;BME280;50353;51.420;5.682;2023-04-01T07:32:53;99269.81;;;10.73;99.89
64095;BME280;50353;51.420;5.682;2023-04-01T07:51:40;99277.66;;;10.85;99.62
64095;BME280;50353;51.420;5.682;2023-04-01T08:07:01;99288.28;;;10.42;100.00
64095;BME280;50353;51.420;5.682;2023-04-01T08:14:50;99324.88;;;10.68;100.00
64095;BME280;50353;51.420;5.682;2023-04-01T08:17:22;99319.63;;;10.78;100.00
64095;BME280;50353;51.420;5.682;2023-04-01T08:22:27;99326.41;;;10.71;99.64
64095;BME280;50353;51.420;5.682;2023-04-01T08:24:55;99323.34;;;10.12;100.00
64095;BME280;50353;51.420;5.682;2023-04-01T08:27:28;99329.81;;;10.82;100.00
64095;BME280;50353;51.420;5.682;2023-04-01T08:29:59;99333.66;;;10.47;100.00
64095;BME280;50353;51.420;5.682;2023-04-01T08:32:34;99341.41;;;10.70;100.00
64095;BME280;50353;51.420;5.682;2023-04-01T08:37:44;99340.00;;;10.66;100.00
64095;BME280;50353;51.420;5.682;2023-04-01T08:40:34;99347.22;;;11.16;99.12
64095;BME280;50353;51.420;5.682;2023-04-01T08:43:13;99347.56;;;11.42;98.71
64095;BME280;50353;51.420;5.682;2023-04-01T08:46:11;99352.81;;;10.92;100.00
64095;BME280;50353;51.420;5.682;2023-04-01T08:51:43;99372.88;;;11.76;94.99
64095;BME280;50353;51.420;5.682;2023-04-01T08:56:50;99382.84;;;11.53;96.36
64095;BME280;50353;51.420;5.682;2023-04-01T08:59:30;99380.00;;;11.75;93.89
64095;BME280;50353;51.420;5.682;2023-04-01T09:02:20;99377.56;;;11.22;97.00
64095;BME280;50353;51.420;5.682;2023-04-01T09:19:23;99394.94;;;11.14;98.17
64095;BME280;50353;51.420;5.682;2023-04-01T09:22:08;99399.53;;;11.43;97.01
64095;BME280;50353;51.420;5.682;2023-04-01T09:27:26;99405.56;;;11.55;96.22
64095;BME280;50353;51.420;5.682;2023-04-01T09:41:29;99415.84;;;11.48;100.00
64095;BME280;50353;51.420;5.682;2023-04-01T09:44:23;99428.78;;;11.82;95.33
64095;BME280;50353;51.420;5.682;2023-04-01T09:47:01;99424.88;;;11.46;99.49
64095;BME280;50353;51.420;5.682;2023-04-01T09:52:42;99422.34;;;11.35;97.22
64095;BME280;50353;51.420;5.682;2023-04-01T10:01:10;99443.09;;;11.39;97.97
64095;BME280;50353;51.420;5.682;2023-04-01T10:15:13;99462.69;;;10.85;99.95
64095;BME280;50353;51.420;5.682;2023-04-01T10:23:48;99466.22;;;12.18;92.92
64095;BME280;50353;51.420;5.682;2023-04-01T10:41:29;99487.28;;;11.79;97.08
64095;BME280;50353;51.420;5.682;2023-04-01T10:49:45;99489.03;;;11.38;99.16
64095;BME280;50353;51.420;5.682;2023-04-01T10:55:17;99499.25;;;12.14;93.36
64095;BME280;50353;51.420;5.682;2023-04-01T11:03:41;99502.53;;;11.35;98.73
64095;BME280;50353;51.420;5.682;2023-04-01T11:14:59;99522.91;;;11.96;93.87
64095;BME280;50353;51.420;5.682;2023-04-01T11:20:59;99518.22;;;11.48;97.56
64095;BME280;50353;51.420;5.682;2023-04-01T11:28:54;99538.19;;;11.93;95.69
64095;BME280;50353;51.420;5.682;2023-04-01T11:31:35;99529.63;;;11.48;97.71
64095;BME280;50353;51.420;5.682;2023-04-01T11:37:08;99546.59;;;11.98;94.75
64095;BME280;50353;51.420;5.682;2023-04-01T11:39:59;99533.53;;;11.75;95.27
64095;BME280;50353;51.420;5.682;2023-04-01T11:45:19;99549.75;;;11.61;97.03
64095;BME280;50353;51.420;5.682;2023-04-01T11:48:13;99553.72;;;12.38;92.35
64095;BME280;50353;51.420;5.682;2023-04-01T11:51:05;99557.53;;;12.14;93.79
64095;BME280;50353;51.420;5.682;2023-04-01T11:56:39;99563.09;;;12.02;94.56
64095;BME280;50353;51.420;5.682;2023-04-01T12:04:31;99572.47;;;12.15;94.63
64095;BME280;50353;51.420;5.682;2023-04-01T12:07:15;99583.59;;;11.36;98.33
64095;BME280;50353;51.420;5.682;2023-04-01T12:09:54;99582.78;;;11.66;98.56
64095;BME280;50353;51.420;5.682;2023-04-01T12:12:40;99588.16;;;11.13;100.00
64095;BME280;50353;51.420;5.682;2023-04-01T12:15:35;99590.41;;;11.81;98.14
64095;BME280;50353;51.420;5.682;2023-04-01T12:18:27;99585.09;;;12.02;96.73
64095;BME280;50353;51.420;5.682;2023-04-01T12:21:22;99595.03;;;11.58;99.65
64095;BME280;50353;51.420;5.682;2023-04-01T12:24:05;99594.56;;;11.95;98.85
64095;BME280;50353;51.420;5.682;2023-04-01T12:26:47;99592.84;;;11.94;97.85
64095;BME280;50353;51.420;5.682;2023-04-01T12:45:54;99623.78;;;11.93;98.81
64095;BME280;50353;51.420;5.682;2023-04-01T12:51:36;99618.97;;;12.39;94.74
64095;BME280;50353;51.420;5.682;2023-04-01T13:00:20;99631.75;;;11.51;97.88
64095;BME280;50353;51.420;5.682;2023-04-01T13:03:26;99631.16;;;11.47;100.00
64095;BME280;50353;51.420;5.682;2023-04-01T13:20:41;99649.06;;;12.69;93.40
64095;BME280;50353;51.420;5.682;2023-04-01T13:23:20;99655.88;;;12.52;94.56
64095;BME280;50353;51.420;5.682;2023-04-01T13:25:53;99654.34;;;12.28;97.70
64095;BME280;50353;51.420;5.682;2023-04-01T13:28:27;99668.53;;;11.54;98.88
64095;BME280;50353;51.420;5.682;2023-04-01T13:31:26;99669.31;;;11.87;96.71
64095;BME280;50353;51.420;5.682;2023-04-01T13:34:08;99674.38;;;11.90;98.16
64095;BME280;50353;51.420;5.682;2023-04-01T13:36:59;99673.41;;;11.70;99.44
64095;BME280;50353;51.420;5.682;2023-04-01T13:42:26;99678.25;;;12.07;94.55
64095;BME280;50353;51.420;5.682;2023-04-01T13:50:50;99677.28;;;12.08;97.84
64095;BME280;50353;51.420;5.682;2023-04-01T13:56:16;99689.25;;;11.05;100.00
64095;BME280;50353;51.420;5.682;2023-04-01T14:01:47;99686.72;;;11.15;100.00
64095;BME280;50353;51.420;5.682;2023-04-01T14:18:29;99703.22;;;11.07;100.00
64095;BME280;50353;51.420;5.682;2023-04-01T14:34:59;99731.22;;;12.07;97.06
64095;BME280;50353;51.420;5.682;2023-04-01T14:37:55;99728.03;;;11.27;100.00
64095;BME280;50353;51.420;5.682;2023-04-01T14:44:00;99731.22;;;11.10;100.00
64095;BME280;50353;51.420;5.682;2023-04-01T14:49:34;99748.69;;;11.45;100.00
64095;BME280;50353;51.420;5.682;2023-04-01T14:52:09;99745.69;;;11.38;100.00
64095;BME280;50353;51.420;5.682;2023-04-01T14:54:37;99747.41;;;11.28;100.00
64095;BME280;50353;51.420;5.682;2023-04-01T14:57:29;99754.66;;;11.91;99.90
64095;BME280;50353;51.420;5.682;2023-04-01T15:00:21;99746.59;;;11.16;100.00
64095;BME280;50353;51.420;5.682;2023-04-01T15:03:05;99754.25;;;11.30;100.00
64095;BME280;50353;51.420;5.682;2023-04-01T15:05:49;99756.00;;;11.53;100.00
64095;BME280;50353;51.420;5.682;2023-04-01T15:08:20;99755.53;;;10.92;100.00
64095;BME280;50353;51.420;5.682;2023-04-01T15:10:56;99758.13;;;11.26;100.00
64095;BME280;50353;51.420;5.682;2023-04-01T15:26:49;99786.63;;;10.66;100.00
64095;BME280;50353;51.420;5.682;2023-04-01T15:32:21;99789.06;;;11.58;100.00
64095;BME280;50353;51.420;5.682;2023-04-01T15:37:56;99794.53;;;11.45;100.00
64095;BME280;50353;51.420;5.682;2023-04-01T15:40:30;99797.81;;;11.70;100.00
64095;BME280;50353;51.420;5.682;2023-04-01T15:43:14;99804.63;;;12.16;97.32
64095;BME280;50353;51.420;5.682;2023-04-01T15:48:33;99801.75;;;11.32;100.00
64095;BME280;50353;51.420;5.682;2023-04-01T15:56:40;99813.81;;;11.25;100.00
64095;BME280;50353;51.420;5.682;2023-04-01T16:05:11;99824.69;;;11.54;100.00
64095;BME280;50353;51.420;5.682;2023-04-01T16:10:42;99827.16;;;11.78;98.38
64095;BME280;50353;51.420;5.682;2023-04-01T16:13:22;99831.72;;;11.76;99.27
64095;BME280;50353;51.420;5.682;2023-04-01T16:23:57;99834.22;;;11.34;100.00
64095;BME280;50353;51.420;5.682;2023-04-01T16:28:57;99847.09;;;11.27;100.00
64095;BME280;50353;51.420;5.682;2023-04-01T16:31:35;99845.72;;;11.56;100.00
64095;BME280;50353;51.420;5.682;2023-04-01T16:34:24;99847.47;;;11.23;100.00
64095;BME280;50353;51.420;5.682;2023-04-01T16:37:34;99848.03;;;10.81;100.00
64095;BME280;50353;51.420;5.682;2023-04-01T16:40:13;99855.47;;;10.64;100.00
64095;BME280;50353;51.420;5.682;2023-04-01T16:43:06;99854.81;;;11.30;100.00
64095;BME280;50353;51.420;5.682;2023-04-01T16:45:41;99856.25;;;11.12;100.00
64095;BME280;50353;51.420;5.682;2023-04-01T16:55:45;99874.25;;;11.52;100.00
64095;BME280;50353;51.420;5.682;2023-04-01T16:58:20;99875.44;;;11.59;100.00
64095;BME280;50353;51.420;5.682;2023-04-01T17:00:50;99881.50;;;11.94;96.91
64095;BME280;50353;51.420;5.682;2023-04-01T17:03:27;99873.63;;;11.71;98.55
64095;BME280;50353;51.420;5.682;2023-04-01T17:11:19;99891.09;;;11.40;100.00
64095;BME280;50353;51.420;5.682;2023-04-01T17:16:43;99900.78;;;11.84;97.38
64095;BME280;50353;51.420;5.682;2023-04-01T17:22:27;99901.97;;;11.92;97.37
64095;BME280;50353;51.420;5.682;2023-04-01T17:25:13;99908.84;;;11.83;96.26
64095;BME280;50353;51.420;5.682;2023-04-01T17:27:48;99905.84;;;11.99;94.57
64095;BME280;50353;51.420;5.682;2023-04-01T17:30:22;99920.53;;;11.92;94.69
64095;BME280;50353;51.420;5.682;2023-04-01T17:35:39;99914.03;;;11.96;95.42
64095;BME280;50353;51.420;5.682;2023-04-01T17:41:36;99932.31;;;11.88;94.76
64095;BME280;50353;51.420;5.682;2023-04-01T17:44:35;99941.59;;;11.71;95.83
64095;BME280;50353;51.420;5.682;2023-04-01T17:52:39;99949.13;;;10.85;100.00
64095;BME280;50353;51.420;5.682;2023-04-01T17:55:29;99957.22;;;10.70;100.00
64095;BME280;50353;51.420;5.682;2023-04-01T17:58:16;99952.28;;;10.54;100.00
64095;BME280;50353;51.420;5.682;2023-04-01T18:20:47;100002.91;;;10.72;100.00
64095;BME280;50353;51.420;5.682;2023-04-01T18:23:39;100013.09;;;10.41;100.00
64095;BME280;50353;51.420;5.682;2023-04-01T18:26:12;100017.38;;;10.55;100.00
64095;BME280;50353;51.420;5.682;2023-04-01T18:28:49;100015.53;;;10.31;100.00
64095;BME280;50353;51.420;5.682;2023-04-01T18:31:20;100031.59;;;10.41;100.00
64095;BME280;50353;51.420;5.682;2023-04-01T18:33:54;100036.16;;;10.39;100.00
64095;BME280;50353;51.420;5.682;2023-04-01T18:37:45;100050.63;;;10.34;100.00
64095;BME280;50353;51.420;5.682;2023-04-01T18:39:42;100054.09;;;10.34;100.00
64095;BME280;50353;51.420;5.682;2023-04-01T18:45:19;100057.50;;;10.36;100.00
64095;BME280;50353;51.420;5.682;2023-04-01T18:50:57;100081.00;;;10.52;100.00
64095;BME280;50353;51.420;5.682;2023-04-01T18:53:48;100087.53;;;10.35;100.00
64095;BME280;50353;51.420;5.682;2023-04-01T18:56:37;100095.00;;;10.28;100.00
64095;BME280;50353;51.420;5.682;2023-04-01T18:59:21;100103.91;;;10.40;100.00
64095;BME280;50353;51.420;5.682;2023-04-01T19:05:07;100119.75;;;10.14;100.00
64095;BME280;50353;51.420;5.682;2023-04-01T19:10:43;100129.47;;;10.27;100.00
64095;BME280;50353;51.420;5.682;2023-04-01T19:21:41;100149.97;;;10.10;100.00
64095;BME280;50353;51.420;5.682;2023-04-01T19:35:19;100181.22;;;10.17;100.00
64095;BME280;50353;51.420;5.682;2023-04-01T19:37:58;100190.53;;;10.09;100.00
64095;BME280;50353;51.420;5.682;2023-04-01T19:40:47;100189.56;;;9.85;100.00
64095;BME280;50353;51.420;5.682;2023-04-01T19:43:50;100194.09;;;10.08;100.00
64095;BME280;50353;51.420;5.682;2023-04-01T19:46:36;100199.69;;;9.78;100.00
64095;BME280;50353;51.420;5.682;2023-04-01T19:56:58;100222.56;;;9.77;100.00
64095;BME280;50353;51.420;5.682;2023-04-01T20:02:29;100232.19;;;9.66;100.00
64095;BME280;50353;51.420;5.682;2023-04-01T20:05:04;100237.13;;;9.70;100.00
64095;BME280;50353;51.420;5.682;2023-04-01T20:07:52;100246.34;;;9.77;100.00
64095;BME280;50353;51.420;5.682;2023-04-01T20:10:32;100252.16;;;9.82;100.00
64095;BME280;50353;51.420;5.682;2023-04-01T20:13:13;100259.28;;;9.55;100.00
64095;BME280;50353;51.420;5.682;2023-04-01T20:15:47;100268.69;;;9.59;100.00
64095;BME280;50353;51.420;5.682;2023-04-01T20:18:57;100266.63;;;9.77;100.00
64095;BME280;50353;51.420;5.682;2023-04-01T20:21:33;100281.09;;;9.57;100.00
64095;BME280;50353;51.420;5.682;2023-04-01T20:26:49;100290.28;;;9.51;100.00
64095;BME280;50353;51.420;5.682;2023-04-01T20:40:01;100314.56;;;9.56;100.00
64095;BME280;50353;51.420;5.682;2023-04-01T20:46:35;100334.72;;;9.16;100.00
64095;BME280;50353;51.420;5.682;2023-04-01T20:49:19;100330.09;;;9.19;100.00
64095;BME280;50353;51.420;5.682;2023-04-01T20:55:13;100346.97;;;9.02;100.00
64095;BME280;50353;51.420;5.682;2023-04-01T20:57:50;100355.44;;;9.22;100.00
64095;BME280;50353;51.420;5.682;2023-04-01T21:03:23;100356.84;;;9.27;100.00
64095;BME280;50353;51.420;5.682;2023-04-01T21:08:48;100371.38;;;9.06;100.00
64095;BME280;50353;51.420;5.682;2023-04-01T21:17:03;100384.81;;;9.01;100.00
64095;BME280;50353;51.420;5.682;2023-04-01T21:22:34;100402.22;;;9.04;100.00
64095;BME280;50353;51.420;5.682;2023-04-01T21:25:26;100401.03;;;9.09;100.00